createdAt,value
2023-04-18T00:00:21.927Z,15.9
2023-04-18T00:10:30.953Z,15.8
2023-04-18T00:20:39.990Z,15.9
2023-04-18T00:30:48.987Z,15.7
2023-04-18T00:40:57.998Z,15.7
2023-04-18T00:51:07.043Z,15.7
2023-04-18T01:01:16.134Z,15.7
2023-04-18T01:11:25.257Z,15.6
2023-04-18T01:21:34.181Z,15.6
2023-04-18T01:31:43.155Z,15.4
2023-04-18T01:41:51.977Z,15.3
2023-04-18T01:52:00.913Z,15.1
2023-04-18T02:02:10.034Z,14.8
2023-04-18T02:12:19.089Z,14.9
2023-04-18T02:22:28.125Z,14.7
2023-04-18T02:32:37.195Z,14.8
2023-04-18T02:42:46.127Z,14.8
2023-04-18T02:52:55.184Z,14.8
2023-04-18T03:03:04.466Z,14.6
2023-04-18T03:13:13.332Z,14.5
2023-04-18T03:23:22.440Z,14.4
2023-04-18T03:33:31.965Z,14.2
2023-04-18T03:43:40.891Z,14.3
2023-04-18T03:53:49.844Z,14.4
2023-04-18T04:03:59.040Z,14.6
2023-04-18T04:14:07.834Z,14.5
2023-04-18T04:24:16.965Z,14.5
2023-04-18T04:34:25.876Z,14.6
2023-04-18T04:44:35.114Z,14.7
2023-04-18T04:54:44.306Z,14.6
2023-04-18T05:04:53.485Z,14.5
2023-04-18T05:15:02.663Z,14.6
2023-04-18T05:25:12.246Z,14.7
2023-04-18T05:35:21.231Z,14.7
2023-04-18T05:45:30.098Z,14.8
2023-04-18T05:55:39.148Z,15.3
2023-04-18T06:05:48.175Z,15.5
2023-04-18T06:15:48.106Z,15.4
2023-04-18T06:25:49.131Z,15.3
2023-04-18T06:45:51.654Z,15.3
2023-04-18T06:56:00.847Z,15.8
2023-04-18T07:06:10.144Z,16.2
2023-04-18T07:16:19.228Z,16.4
2023-04-18T07:26:21.123Z,16.9
2023-04-18T07:36:30.335Z,18.6
2023-04-18T07:46:49.434Z,19.5
2023-04-18T07:56:48.469Z,18.9
2023-04-18T08:07:00.055Z,19.3
2023-04-18T08:16:59.359Z,19.1
2023-04-18T08:27:08.598Z,19.1
2023-04-18T08:37:08.988Z,19.1
2023-04-18T08:47:19.409Z,19.2
2023-04-18T08:57:19.061Z,20.5
2023-04-18T09:07:28.166Z,20.7
2023-04-18T09:17:38.370Z,20.4
2023-04-18T09:27:38.616Z,20.2
2023-04-18T09:37:39.453Z,20.2
2023-04-18T09:47:41.908Z,20.2
2023-04-18T09:57:41.802Z,20.3
2023-04-18T10:07:50.896Z,19.6
2023-04-18T10:18:04.954Z,20.1
2023-04-18T10:28:09.795Z,20
2023-04-18T10:38:20.966Z,20.6
2023-04-18T10:48:22.405Z,20.5
2023-04-18T10:58:24.366Z,20.5
2023-04-18T11:08:22.843Z,20.6
2023-04-18T11:18:33.628Z,20.7
2023-04-18T11:28:33.252Z,21.2
2023-04-18T11:38:42.606Z,20.7
2023-04-18T11:48:51.788Z,20
2023-04-18T11:59:01.180Z,20
2023-04-18T12:09:10.380Z,20.5
2023-04-18T12:19:12.965Z,20.8
2023-04-18T12:29:13.258Z,20.5
2023-04-18T12:39:22.018Z,20.2
2023-04-18T12:49:31.356Z,20.3
2023-04-18T12:59:43.742Z,20.2
2023-04-18T13:09:47.200Z,20.1
2023-04-18T13:19:46.786Z,20.2
2023-04-18T13:29:55.961Z,20.1
2023-04-18T13:40:05.089Z,19.9
2023-04-18T13:50:05.835Z,20
2023-04-18T14:00:07.311Z,20.5
2023-04-18T14:10:16.271Z,21
2023-04-18T14:20:25.353Z,20.6
2023-04-18T14:30:34.393Z,21
2023-04-18T14:40:43.418Z,20.7
2023-04-18T14:50:52.626Z,20.5
2023-04-18T15:01:01.785Z,20.4
2023-04-18T15:11:02.925Z,19.7
2023-04-18T15:21:02.082Z,19.5
2023-04-18T15:31:11.067Z,19.9
2023-04-18T15:41:20.969Z,19.6
2023-04-18T15:51:31.175Z,19.6
2023-04-18T16:01:35.284Z,19.6
2023-04-18T16:11:34.962Z,19.4
2023-04-18T16:21:43.932Z,19
2023-04-18T16:31:52.918Z,18.9
2023-04-18T16:41:53.024Z,19
2023-04-18T16:52:01.953Z,19.2
2023-04-18T17:02:11.097Z,19
2023-04-18T17:12:20.020Z,19.3
2023-04-18T17:22:28.833Z,19.3
2023-04-18T17:32:37.799Z,18.9
2023-04-18T17:42:47.056Z,19
2023-04-18T17:52:55.917Z,18.8
2023-04-18T18:03:04.984Z,18.8
2023-04-18T18:13:05.416Z,18.5
2023-04-18T18:23:14.517Z,18.5
2023-04-18T18:33:23.296Z,18.3
2023-04-18T18:43:32.228Z,18.1
2023-04-18T18:53:42.482Z,18.2
2023-04-18T19:03:41.768Z,18.1
2023-04-18T19:13:50.706Z,18
2023-04-18T19:24:01.523Z,18
2023-04-18T19:34:07.824Z,18.1
2023-04-18T19:44:10.578Z,17.9
2023-04-18T19:54:09.647Z,17.8
2023-04-18T20:14:15.652Z,18.1
2023-04-18T20:24:18.242Z,18
2023-04-18T20:34:19.733Z,17
2023-04-18T20:44:33.102Z,16.7
2023-04-18T20:54:33.535Z,16.6
2023-04-18T21:04:31.766Z,16.4
2023-04-18T21:14:35.122Z,16.2
2023-04-18T21:24:36.085Z,16
2023-04-18T21:34:39.495Z,15.9
2023-04-18T21:44:39.476Z,15.9
2023-04-18T21:54:48.713Z,15.8
2023-04-18T22:04:57.933Z,15.6
2023-04-18T22:25:07.188Z,15.4
2023-04-18T22:35:10.679Z,15.3
2023-04-18T22:45:20.275Z,15.3
2023-04-18T22:55:24.442Z,15.3
2023-04-18T23:05:33.430Z,15
2023-04-18T23:15:44.449Z,14.8
2023-04-18T23:35:45.956Z,14.7
2023-04-18T23:45:54.955Z,14.4
2023-04-18T23:56:04.602Z,14.4
